sensor_id;sensor_type;location;lat;lon;timestamp;temperature;humidity
15666;DHT22;20725;51.196;3.510;2022-12-29T00:01:25;10.00;99.90
15666;DHT22;20725;51.196;3.510;2022-12-29T00:03:52;10.30;99.90
15666;DHT22;20725;51.196;3.510;2022-12-29T00:06:22;10.10;99.90
15666;DHT22;20725;51.196;3.510;2022-12-29T00:08:53;10.50;99.90
15666;DHT22;20725;51.196;3.510;2022-12-29T00:11:39;9.60;99.90
15666;DHT22;20725;51.196;3.510;2022-12-29T00:14:09;10.90;99.90
15666;DHT22;20725;51.196;3.510;2022-12-29T00:17:02;10.50;99.90
15666;DHT22;20725;51.196;3.510;2022-12-29T00:19:30;10.30;99.90
15666;DHT22;20725;51.196;3.510;2022-12-29T00:22:17;10.30;99.90
15666;DHT22;20725;51.196;3.510;2022-12-29T00:25:04;10.50;99.90
15666;DHT22;20725;51.196;3.510;2022-12-29T00:27:53;10.50;99.90
15666;DHT22;20725;51.196;3.510;2022-12-29T00:30:38;10.00;99.90
15666;DHT22;20725;51.196;3.510;2022-12-29T00:33:26;10.20;99.90
15666;DHT22;20725;51.196;3.510;2022-12-29T00:37:09;10.20;99.90
15666;DHT22;20725;51.196;3.510;2022-12-29T00:46:53;10.00;99.90
15666;DHT22;20725;51.196;3.510;2022-12-29T00:49:34;10.00;99.90
15666;DHT22;20725;51.196;3.510;2022-12-29T00:52:09;9.70;99.90
15666;DHT22;20725;51.196;3.510;2022-12-29T00:55:15;9.70;99.90
15666;DHT22;20725;51.196;3.510;2022-12-29T00:58:19;9.70;99.90
15666;DHT22;20725;51.196;3.510;2022-12-29T01:03:40;9.60;99.90
15666;DHT22;20725;51.196;3.510;2022-12-29T01:06:11;9.70;99.90
15666;DHT22;20725;51.196;3.510;2022-12-29T01:08:38;9.80;99.90
15666;DHT22;20725;51.196;3.510;2022-12-29T01:11:07;9.70;99.90
15666;DHT22;20725;51.196;3.510;2022-12-29T01:13:34;9.70;99.90
15666;DHT22;20725;51.196;3.510;2022-12-29T01:16:01;9.80;99.90
15666;DHT22;20725;51.196;3.510;2022-12-29T01:18:33;10.10;99.90
15666;DHT22;20725;51.196;3.510;2022-12-29T01:21:04;10.10;99.90
15666;DHT22;20725;51.196;3.510;2022-12-29T01:23:36;10.30;99.90
15666;DHT22;20725;51.196;3.510;2022-12-29T01:26:11;10.40;99.90
15666;DHT22;20725;51.196;3.510;2022-12-29T01:28:39;10.20;99.90
15666;DHT22;20725;51.196;3.510;2022-12-29T01:31:16;10.30;99.90
15666;DHT22;20725;51.196;3.510;2022-12-29T01:33:47;10.10;99.90
15666;DHT22;20725;51.196;3.510;2022-12-29T01:36:21;10.30;99.90
15666;DHT22;20725;51.196;3.510;2022-12-29T01:38:51;10.00;99.90
15666;DHT22;20725;51.196;3.510;2022-12-29T01:41:21;10.20;99.90
15666;DHT22;20725;51.196;3.510;2022-12-29T01:43:51;10.20;99.90
15666;DHT22;20725;51.196;3.510;2022-12-29T01:46:23;10.40;99.90
15666;DHT22;20725;51.196;3.510;2022-12-29T01:48:57;10.30;99.90
15666;DHT22;20725;51.196;3.510;2022-12-29T01:51:30;10.30;99.90
15666;DHT22;20725;51.196;3.510;2022-12-29T01:54:00;10.30;99.90
15666;DHT22;20725;51.196;3.510;2022-12-29T01:56:31;10.50;99.90
15666;DHT22;20725;51.196;3.510;2022-12-29T01:59:02;10.30;99.90
15666;DHT22;20725;51.196;3.510;2022-12-29T02:01:32;10.30;99.90
15666;DHT22;20725;51.196;3.510;2022-12-29T02:04:02;10.30;99.90
15666;DHT22;20725;51.196;3.510;2022-12-29T02:06:34;10.40;99.90
15666;DHT22;20725;51.196;3.510;2022-12-29T02:09:06;10.40;99.90
15666;DHT22;20725;51.196;3.510;2022-12-29T02:11:36;10.40;99.90
15666;DHT22;20725;51.196;3.510;2022-12-29T02:14:11;10.30;99.90
15666;DHT22;20725;51.196;3.510;2022-12-29T02:17:05;10.50;99.90
15666;DHT22;20725;51.196;3.510;2022-12-29T02:22:46;10.00;99.90
15666;DHT22;20725;51.196;3.510;2022-12-29T02:29:01;10.10;99.90
15666;DHT22;20725;51.196;3.510;2022-12-29T02:31:42;9.90;99.90
15666;DHT22;20725;51.196;3.510;2022-12-29T02:34:22;9.90;99.90
15666;DHT22;20725;51.196;3.510;2022-12-29T02:37:02;9.90;99.90
15666;DHT22;20725;51.196;3.510;2022-12-29T02:39:36;9.60;99.90
15666;DHT22;20725;51.196;3.510;2022-12-29T02:42:11;9.90;99.90
15666;DHT22;20725;51.196;3.510;2022-12-29T02:44:50;9.70;99.90
15666;DHT22;20725;51.196;3.510;2022-12-29T02:47:28;9.70;99.90
15666;DHT22;20725;51.196;3.510;2022-12-29T02:50:03;9.50;99.90
15666;DHT22;20725;51.196;3.510;2022-12-29T02:52:38;9.50;99.90
15666;DHT22;20725;51.196;3.510;2022-12-29T02:55:10;9.40;99.90
15666;DHT22;20725;51.196;3.510;2022-12-29T02:57:37;9.40;99.90
15666;DHT22;20725;51.196;3.510;2022-12-29T03:00:06;9.50;99.90
15666;DHT22;20725;51.196;3.510;2022-12-29T03:03:08;9.40;99.90
15666;DHT22;20725;51.196;3.510;2022-12-29T03:06:03;9.30;99.90
15666;DHT22;20725;51.196;3.510;2022-12-29T03:08:39;9.20;99.90
15666;DHT22;20725;51.196;3.510;2022-12-29T03:11:09;9.30;99.90
15666;DHT22;20725;51.196;3.510;2022-12-29T03:14:02;9.20;99.90
15666;DHT22;20725;51.196;3.510;2022-12-29T03:16:53;9.20;99.90
15666;DHT22;20725;51.196;3.510;2022-12-29T03:19:27;9.00;99.90
15666;DHT22;20725;51.196;3.510;2022-12-29T03:21:59;9.10;99.90
15666;DHT22;20725;51.196;3.510;2022-12-29T03:24:56;9.20;99.90
15666;DHT22;20725;51.196;3.510;2022-12-29T03:27:28;9.20;99.90
15666;DHT22;20725;51.196;3.510;2022-12-29T03:29:59;9.20;99.90
15666;DHT22;20725;51.196;3.510;2022-12-29T03:32:32;9.30;99.90
15666;DHT22;20725;51.196;3.510;2022-12-29T03:35:02;9.20;99.90
15666;DHT22;20725;51.196;3.510;2022-12-29T03:37:36;9.20;99.90
15666;DHT22;20725;51.196;3.510;2022-12-29T03:40:05;9.30;99.90
15666;DHT22;20725;51.196;3.510;2022-12-29T03:42:34;9.20;99.90
15666;DHT22;20725;51.196;3.510;2022-12-29T03:45:04;9.30;99.90
15666;DHT22;20725;51.196;3.510;2022-12-29T03:47:33;9.30;99.90
15666;DHT22;20725;51.196;3.510;2022-12-29T03:50:01;9.30;99.90
15666;DHT22;20725;51.196;3.510;2022-12-29T03:52:28;9.30;99.90
15666;DHT22;20725;51.196;3.510;2022-12-29T03:54:55;9.40;99.90
15666;DHT22;20725;51.196;3.510;2022-12-29T03:57:24;9.40;99.90
15666;DHT22;20725;51.196;3.510;2022-12-29T03:59:51;9.40;99.90
15666;DHT22;20725;51.196;3.510;2022-12-29T04:02:18;9.30;99.90
15666;DHT22;20725;51.196;3.510;2022-12-29T04:04:44;9.30;99.90
15666;DHT22;20725;51.196;3.510;2022-12-29T04:07:16;9.40;99.90
15666;DHT22;20725;51.196;3.510;2022-12-29T04:09:43;9.30;99.90
15666;DHT22;20725;51.196;3.510;2022-12-29T04:12:10;9.40;99.90
15666;DHT22;20725;51.196;3.510;2022-12-29T04:14:37;9.50;99.90
15666;DHT22;20725;51.196;3.510;2022-12-29T04:17:04;9.50;99.90
15666;DHT22;20725;51.196;3.510;2022-12-29T04:19:34;9.50;99.90
15666;DHT22;20725;51.196;3.510;2022-12-29T04:22:01;9.60;99.90
15666;DHT22;20725;51.196;3.510;2022-12-29T04:24:28;9.50;99.90
15666;DHT22;20725;51.196;3.510;2022-12-29T04:26:55;9.50;99.90
15666;DHT22;20725;51.196;3.510;2022-12-29T04:29:24;9.50;99.90
15666;DHT22;20725;51.196;3.510;2022-12-29T04:31:53;9.50;99.90
15666;DHT22;20725;51.196;3.510;2022-12-29T04:34:21;9.70;99.90
15666;DHT22;20725;51.196;3.510;2022-12-29T04:36:48;9.60;99.90
15666;DHT22;20725;51.196;3.510;2022-12-29T04:39:15;9.70;99.90
15666;DHT22;20725;51.196;3.510;2022-12-29T04:41:43;9.70;99.90
15666;DHT22;20725;51.196;3.510;2022-12-29T04:44:14;9.70;99.90
15666;DHT22;20725;51.196;3.510;2022-12-29T04:46:41;9.80;99.90
15666;DHT22;20725;51.196;3.510;2022-12-29T04:49:08;9.60;99.90
15666;DHT22;20725;51.196;3.510;2022-12-29T04:51:37;9.70;99.90
15666;DHT22;20725;51.196;3.510;2022-12-29T04:54:11;9.80;99.90
15666;DHT22;20725;51.196;3.510;2022-12-29T04:56:39;9.90;99.90
15666;DHT22;20725;51.196;3.510;2022-12-29T04:59:08;9.80;99.90
15666;DHT22;20725;51.196;3.510;2022-12-29T05:01:41;10.00;99.90
15666;DHT22;20725;51.196;3.510;2022-12-29T05:04:11;10.00;99.90
15666;DHT22;20725;51.196;3.510;2022-12-29T05:06:40;10.10;99.90
15666;DHT22;20725;51.196;3.510;2022-12-29T05:09:07;10.10;99.90
15666;DHT22;20725;51.196;3.510;2022-12-29T05:11:35;10.20;99.90
15666;DHT22;20725;51.196;3.510;2022-12-29T05:14:02;10.10;99.90
15666;DHT22;20725;51.196;3.510;2022-12-29T05:16:37;10.10;99.90
15666;DHT22;20725;51.196;3.510;2022-12-29T05:19:04;9.90;99.90
15666;DHT22;20725;51.196;3.510;2022-12-29T05:21:31;10.00;99.90
15666;DHT22;20725;51.196;3.510;2022-12-29T05:24:01;9.90;99.90
15666;DHT22;20725;51.196;3.510;2022-12-29T05:26:29;10.00;99.90
15666;DHT22;20725;51.196;3.510;2022-12-29T05:28:56;10.10;99.90
15666;DHT22;20725;51.196;3.510;2022-12-29T05:31:26;9.90;99.90
15666;DHT22;20725;51.196;3.510;2022-12-29T05:34:01;9.70;99.90
15666;DHT22;20725;51.196;3.510;2022-12-29T05:36:28;9.10;99.90
15666;DHT22;20725;51.196;3.510;2022-12-29T05:38:55;8.80;99.90
15666;DHT22;20725;51.196;3.510;2022-12-29T05:41:22;8.50;99.90
15666;DHT22;20725;51.196;3.510;2022-12-29T05:43:49;8.40;99.90
15666;DHT22;20725;51.196;3.510;2022-12-29T05:46:16;8.40;99.90
15666;DHT22;20725;51.196;3.510;2022-12-29T05:48:43;8.40;99.90
15666;DHT22;20725;51.196;3.510;2022-12-29T05:51:12;8.40;99.90
15666;DHT22;20725;51.196;3.510;2022-12-29T05:53:39;8.50;99.90
15666;DHT22;20725;51.196;3.510;2022-12-29T05:56:06;8.50;99.90
15666;DHT22;20725;51.196;3.510;2022-12-29T05:58:33;8.50;99.90
15666;DHT22;20725;51.196;3.510;2022-12-29T06:01:00;8.60;99.90
15666;DHT22;20725;51.196;3.510;2022-12-29T06:03:27;8.80;99.90
15666;DHT22;20725;51.196;3.510;2022-12-29T06:05:54;8.70;99.90
15666;DHT22;20725;51.196;3.510;2022-12-29T06:08:22;8.80;99.90
15666;DHT22;20725;51.196;3.510;2022-12-29T06:10:50;8.70;99.90
15666;DHT22;20725;51.196;3.510;2022-12-29T06:13:19;8.80;99.90
15666;DHT22;20725;51.196;3.510;2022-12-29T06:15:48;9.00;99.90
15666;DHT22;20725;51.196;3.510;2022-12-29T06:18:16;9.20;99.90
15666;DHT22;20725;51.196;3.510;2022-12-29T06:20:44;9.20;99.90
15666;DHT22;20725;51.196;3.510;2022-12-29T06:23:16;9.20;99.90
15666;DHT22;20725;51.196;3.510;2022-12-29T06:25:47;9.40;99.90
15666;DHT22;20725;51.196;3.510;2022-12-29T06:28:14;9.60;99.90
15666;DHT22;20725;51.196;3.510;2022-12-29T06:30:43;9.60;99.90
15666;DHT22;20725;51.196;3.510;2022-12-29T06:33:14;9.60;99.90
15666;DHT22;20725;51.196;3.510;2022-12-29T06:35:42;9.50;99.90
15666;DHT22;20725;51.196;3.510;2022-12-29T06:38:09;9.60;99.90
15666;DHT22;20725;51.196;3.510;2022-12-29T06:40:36;9.60;99.90
15666;DHT22;20725;51.196;3.510;2022-12-29T06:43:05;9.50;99.90
15666;DHT22;20725;51.196;3.510;2022-12-29T06:45:34;9.30;99.90
15666;DHT22;20725;51.196;3.510;2022-12-29T06:48:15;9.50;99.90
15666;DHT22;20725;51.196;3.510;2022-12-29T06:50:44;9.50;99.90
15666;DHT22;20725;51.196;3.510;2022-12-29T06:53:11;9.40;99.90
15666;DHT22;20725;51.196;3.510;2022-12-29T06:55:42;9.40;99.90
15666;DHT22;20725;51.196;3.510;2022-12-29T06:58:18;9.30;99.90
15666;DHT22;20725;51.196;3.510;2022-12-29T07:00:48;9.30;99.90
15666;DHT22;20725;51.196;3.510;2022-12-29T07:03:15;9.30;99.90
15666;DHT22;20725;51.196;3.510;2022-12-29T07:05:52;9.40;99.90
15666;DHT22;20725;51.196;3.510;2022-12-29T07:08:23;9.50;99.90
15666;DHT22;20725;51.196;3.510;2022-12-29T07:10:51;9.40;99.90
15666;DHT22;20725;51.196;3.510;2022-12-29T07:13:26;9.60;99.90
15666;DHT22;20725;51.196;3.510;2022-12-29T07:15:55;9.70;99.90
15666;DHT22;20725;51.196;3.510;2022-12-29T07:18:25;9.70;99.90
15666;DHT22;20725;51.196;3.510;2022-12-29T07:23:48;9.80;99.90
15666;DHT22;20725;51.196;3.510;2022-12-29T07:26:21;9.90;99.90
15666;DHT22;20725;51.196;3.510;2022-12-29T07:29:00;10.00;99.90
15666;DHT22;20725;51.196;3.510;2022-12-29T07:31:47;9.90;99.90
15666;DHT22;20725;51.196;3.510;2022-12-29T07:34:22;10.00;99.90
15666;DHT22;20725;51.196;3.510;2022-12-29T07:36:55;9.80;99.90
15666;DHT22;20725;51.196;3.510;2022-12-29T07:39:49;9.60;99.90
15666;DHT22;20725;51.196;3.510;2022-12-29T07:42:19;9.50;99.90
15666;DHT22;20725;51.196;3.510;2022-12-29T07:44:48;8.60;99.90
15666;DHT22;20725;51.196;3.510;2022-12-29T07:47:18;8.40;99.90
15666;DHT22;20725;51.196;3.510;2022-12-29T07:49:45;8.30;99.90
15666;DHT22;20725;51.196;3.510;2022-12-29T07:52:16;8.10;99.90
15666;DHT22;20725;51.196;3.510;2022-12-29T07:54:57;8.00;99.90
15666;DHT22;20725;51.196;3.510;2022-12-29T07:57:27;8.00;99.90
15666;DHT22;20725;51.196;3.510;2022-12-29T08:00:02;8.00;99.90
15666;DHT22;20725;51.196;3.510;2022-12-29T08:02:39;8.00;99.90
15666;DHT22;20725;51.196;3.510;2022-12-29T08:05:12;7.80;99.90
15666;DHT22;20725;51.196;3.510;2022-12-29T08:07:41;8.20;99.90
15666;DHT22;20725;51.196;3.510;2022-12-29T08:10:33;9.20;99.90
15666;DHT22;20725;51.196;3.510;2022-12-29T08:13:20;9.20;99.90
15666;DHT22;20725;51.196;3.510;2022-12-29T08:15:53;9.70;99.90
15666;DHT22;20725;51.196;3.510;2022-12-29T08:18:37;9.70;99.90
15666;DHT22;20725;51.196;3.510;2022-12-29T08:21:09;10.00;99.90
15666;DHT22;20725;51.196;3.510;2022-12-29T08:23:46;9.60;99.90
15666;DHT22;20725;51.196;3.510;2022-12-29T08:26:16;9.50;99.90
15666;DHT22;20725;51.196;3.510;2022-12-29T08:28:48;9.20;99.90
15666;DHT22;20725;51.196;3.510;2022-12-29T08:31:38;9.90;99.90
15666;DHT22;20725;51.196;3.510;2022-12-29T08:34:15;10.00;99.90
15666;DHT22;20725;51.196;3.510;2022-12-29T08:36:59;9.10;99.90
15666;DHT22;20725;51.196;3.510;2022-12-29T08:39:51;9.10;99.90
15666;DHT22;20725;51.196;3.510;2022-12-29T08:42:27;9.30;99.90
15666;DHT22;20725;51.196;3.510;2022-12-29T08:44:59;9.70;99.90
15666;DHT22;20725;51.196;3.510;2022-12-29T08:47:33;9.80;99.90
15666;DHT22;20725;51.196;3.510;2022-12-29T08:50:01;9.80;99.90
15666;DHT22;20725;51.196;3.510;2022-12-29T08:52:30;9.50;99.90
15666;DHT22;20725;51.196;3.510;2022-12-29T08:55:06;9.20;99.90
15666;DHT22;20725;51.196;3.510;2022-12-29T08:57:38;10.10;99.90
15666;DHT22;20725;51.196;3.510;2022-12-29T09:00:06;9.40;99.90
15666;DHT22;20725;51.196;3.510;2022-12-29T09:02:37;10.20;99.90
15666;DHT22;20725;51.196;3.510;2022-12-29T09:05:10;10.10;99.90
15666;DHT22;20725;51.196;3.510;2022-12-29T09:07:42;10.00;99.90
15666;DHT22;20725;51.196;3.510;2022-12-29T09:10:23;9.80;99.90
15666;DHT22;20725;51.196;3.510;2022-12-29T09:12:55;9.10;99.90
15666;DHT22;20725;51.196;3.510;2022-12-29T09:15:25;10.10;99.90
15666;DHT22;20725;51.196;3.510;2022-12-29T09:17:55;10.10;99.90
15666;DHT22;20725;51.196;3.510;2022-12-29T09:23:31;10.20;99.90
15666;DHT22;20725;51.196;3.510;2022-12-29T09:26:07;9.50;99.90
15666;DHT22;20725;51.196;3.510;2022-12-29T09:31:28;10.40;99.90
15666;DHT22;20725;51.196;3.510;2022-12-29T09:34:13;10.60;99.90
15666;DHT22;20725;51.196;3.510;2022-12-29T09:37:12;10.30;99.90
15666;DHT22;20725;51.196;3.510;2022-12-29T09:40:01;10.30;99.90
15666;DHT22;20725;51.196;3.510;2022-12-29T09:43:09;10.40;99.90
15666;DHT22;20725;51.196;3.510;2022-12-29T09:45:48;10.70;99.90
15666;DHT22;20725;51.196;3.510;2022-12-29T09:48:58;10.70;99.90
15666;DHT22;20725;51.196;3.510;2022-12-29T09:51:46;12.10;99.90
15666;DHT22;20725;51.196;3.510;2022-12-29T09:54:45;11.70;99.90
15666;DHT22;20725;51.196;3.510;2022-12-29T09:57:26;11.00;99.90
15666;DHT22;20725;51.196;3.510;2022-12-29T10:00:12;10.70;99.90
15666;DHT22;20725;51.196;3.510;2022-12-29T10:02:51;11.00;99.90
15666;DHT22;20725;51.196;3.510;2022-12-29T10:05:30;10.30;99.90
15666;DHT22;20725;51.196;3.510;2022-12-29T10:08:14;10.10;99.90
15666;DHT22;20725;51.196;3.510;2022-12-29T10:10:54;10.10;99.90
15666;DHT22;20725;51.196;3.510;2022-12-29T10:13:55;10.50;99.90
15666;DHT22;20725;51.196;3.510;2022-12-29T10:17:06;10.40;99.90
15666;DHT22;20725;51.196;3.510;2022-12-29T10:20:20;10.80;99.90
15666;DHT22;20725;51.196;3.510;2022-12-29T10:23:11;10.90;99.90
15666;DHT22;20725;51.196;3.510;2022-12-29T10:26:14;10.90;99.90
15666;DHT22;20725;51.196;3.510;2022-12-29T10:28:59;11.00;99.90
15666;DHT22;20725;51.196;3.510;2022-12-29T10:34:43;10.80;99.90
15666;DHT22;20725;51.196;3.510;2022-12-29T10:37:24;10.90;99.90
15666;DHT22;20725;51.196;3.510;2022-12-29T10:40:17;10.90;99.90
15666;DHT22;20725;51.196;3.510;2022-12-29T10:46:36;10.60;99.90
15666;DHT22;20725;51.196;3.510;2022-12-29T10:49:30;11.20;99.90
15666;DHT22;20725;51.196;3.510;2022-12-29T10:52:33;11.10;99.90
15666;DHT22;20725;51.196;3.510;2022-12-29T10:55:21;11.40;99.90
15666;DHT22;20725;51.196;3.510;2022-12-29T11:01:52;11.50;99.90
15666;DHT22;20725;51.196;3.510;2022-12-29T11:05:10;12.00;99.90
15666;DHT22;20725;51.196;3.510;2022-12-29T11:07:59;12.50;99.90
15666;DHT22;20725;51.196;3.510;2022-12-29T11:14:42;12.10;99.90
15666;DHT22;20725;51.196;3.510;2022-12-29T11:17:50;11.90;99.90
15666;DHT22;20725;51.196;3.510;2022-12-29T11:20:39;11.40;99.90
15666;DHT22;20725;51.196;3.510;2022-12-29T11:29:59;9.80;99.90
15666;DHT22;20725;51.196;3.510;2022-12-29T11:32:29;9.60;99.90
15666;DHT22;20725;51.196;3.510;2022-12-29T11:34:56;9.30;99.90
15666;DHT22;20725;51.196;3.510;2022-12-29T11:37:30;9.10;99.90
15666;DHT22;20725;51.196;3.510;2022-12-29T11:40:02;8.90;99.90
15666;DHT22;20725;51.196;3.510;2022-12-29T11:42:35;9.00;99.90
15666;DHT22;20725;51.196;3.510;2022-12-29T11:48:05;9.20;99.90
15666;DHT22;20725;51.196;3.510;2022-12-29T11:50:40;9.40;99.90
15666;DHT22;20725;51.196;3.510;2022-12-29T11:53:16;9.60;99.90
15666;DHT22;20725;51.196;3.510;2022-12-29T11:55:51;9.90;99.90
15666;DHT22;20725;51.196;3.510;2022-12-29T11:58:34;10.00;99.90
15666;DHT22;20725;51.196;3.510;2022-12-29T12:01:37;9.90;99.90
15666;DHT22;20725;51.196;3.510;2022-12-29T12:04:18;10.00;99.90
15666;DHT22;20725;51.196;3.510;2022-12-29T12:06:53;10.00;99.90
15666;DHT22;20725;51.196;3.510;2022-12-29T12:09:31;10.10;99.90
15666;DHT22;20725;51.196;3.510;2022-12-29T12:12:04;10.40;99.90
15666;DHT22;20725;51.196;3.510;2022-12-29T12:14:58;10.50;99.90
15666;DHT22;20725;51.196;3.510;2022-12-29T12:17:50;10.50;99.90
15666;DHT22;20725;51.196;3.510;2022-12-29T12:20:26;10.40;99.90
15666;DHT22;20725;51.196;3.510;2022-12-29T12:23:06;10.30;99.90
15666;DHT22;20725;51.196;3.510;2022-12-29T12:25:40;10.40;99.90
15666;DHT22;20725;51.196;3.510;2022-12-29T12:28:17;10.70;99.90
15666;DHT22;20725;51.196;3.510;2022-12-29T12:30:58;11.10;99.90
15666;DHT22;20725;51.196;3.510;2022-12-29T12:33:36;11.20;99.90
15666;DHT22;20725;51.196;3.510;2022-12-29T12:36:34;11.00;99.90
15666;DHT22;20725;51.196;3.510;2022-12-29T12:39:08;11.20;99.90
15666;DHT22;20725;51.196;3.510;2022-12-29T12:41:44;11.20;99.90
15666;DHT22;20725;51.196;3.510;2022-12-29T12:44:49;11.00;99.90
15666;DHT22;20725;51.196;3.510;2022-12-29T12:47:49;10.70;99.90
15666;DHT22;20725;51.196;3.510;2022-12-29T12:50:38;10.70;99.90
15666;DHT22;20725;51.196;3.510;2022-12-29T12:56:50;10.40;99.90
15666;DHT22;20725;51.196;3.510;2022-12-29T13:00:01;10.20;99.90
15666;DHT22;20725;51.196;3.510;2022-12-29T13:02:58;10.30;99.90
15666;DHT22;20725;51.196;3.510;2022-12-29T13:05:55;10.30;99.90
15666;DHT22;20725;51.196;3.510;2022-12-29T13:08:50;10.30;99.90
15666;DHT22;20725;51.196;3.510;2022-12-29T13:11:59;10.50;99.90
15666;DHT22;20725;51.196;3.510;2022-12-29T13:16:00;10.40;99.90
15666;DHT22;20725;51.196;3.510;2022-12-29T13:18:37;10.30;99.90
15666;DHT22;20725;51.196;3.510;2022-12-29T13:31:33;9.80;99.90
15666;DHT22;20725;51.196;3.510;2022-12-29T13:34:41;9.90;99.90
15666;DHT22;20725;51.196;3.510;2022-12-29T13:37:46;9.50;99.90
15666;DHT22;20725;51.196;3.510;2022-12-29T13:40:41;9.40;99.90
15666;DHT22;20725;51.196;3.510;2022-12-29T13:43:25;9.50;99.90
15666;DHT22;20725;51.196;3.510;2022-12-29T13:45:58;9.60;99.90
15666;DHT22;20725;51.196;3.510;2022-12-29T13:48:40;9.70;99.90
15666;DHT22;20725;51.196;3.510;2022-12-29T13:51:29;9.70;99.90
15666;DHT22;20725;51.196;3.510;2022-12-29T13:54:37;9.70;99.90
15666;DHT22;20725;51.196;3.510;2022-12-29T14:01:17;9.70;99.90
15666;DHT22;20725;51.196;3.510;2022-12-29T14:07:20;9.30;99.90
15666;DHT22;20725;51.196;3.510;2022-12-29T14:10:18;9.20;99.90
15666;DHT22;20725;51.196;3.510;2022-12-29T14:13:56;9.20;99.90
15666;DHT22;20725;51.196;3.510;2022-12-29T14:16:46;8.90;99.90
15666;DHT22;20725;51.196;3.510;2022-12-29T14:20:15;8.70;99.90
15666;DHT22;20725;51.196;3.510;2022-12-29T14:22:29;8.60;99.90
15666;DHT22;20725;51.196;3.510;2022-12-29T14:28:24;8.50;99.90
15666;DHT22;20725;51.196;3.510;2022-12-29T14:30:53;8.60;99.90
15666;DHT22;20725;51.196;3.510;2022-12-29T14:33:29;8.70;99.90
15666;DHT22;20725;51.196;3.510;2022-12-29T14:35:57;8.70;99.90
15666;DHT22;20725;51.196;3.510;2022-12-29T14:38:56;8.70;99.90
15666;DHT22;20725;51.196;3.510;2022-12-29T14:41:27;8.70;99.90
15666;DHT22;20725;51.196;3.510;2022-12-29T14:44:14;8.80;99.90
15666;DHT22;20725;51.196;3.510;2022-12-29T14:46:54;8.70;99.90
15666;DHT22;20725;51.196;3.510;2022-12-29T14:49:39;8.70;99.90
15666;DHT22;20725;51.196;3.510;2022-12-29T14:52:19;8.60;99.90
15666;DHT22;20725;51.196;3.510;2022-12-29T14:58:07;8.60;99.90
15666;DHT22;20725;51.196;3.510;2022-12-29T15:00:39;8.60;99.90
15666;DHT22;20725;51.196;3.510;2022-12-29T15:03:14;8.60;99.90
15666;DHT22;20725;51.196;3.510;2022-12-29T15:05:46;8.60;99.90
15666;DHT22;20725;51.196;3.510;2022-12-29T15:08:18;8.60;99.90
15666;DHT22;20725;51.196;3.510;2022-12-29T15:11:09;8.60;99.90
15666;DHT22;20725;51.196;3.510;2022-12-29T15:13:56;8.50;99.90
15666;DHT22;20725;51.196;3.510;2022-12-29T15:16:39;8.50;99.90
15666;DHT22;20725;51.196;3.510;2022-12-29T15:19:24;8.50;99.90
15666;DHT22;20725;51.196;3.510;2022-12-29T15:22:03;8.40;99.90
15666;DHT22;20725;51.196;3.510;2022-12-29T15:24:56;8.40;99.90
15666;DHT22;20725;51.196;3.510;2022-12-29T15:27:54;8.40;99.90
15666;DHT22;20725;51.196;3.510;2022-12-29T15:30:49;8.40;99.90
15666;DHT22;20725;51.196;3.510;2022-12-29T15:33:39;8.50;99.90
15666;DHT22;20725;51.196;3.510;2022-12-29T15:36:11;8.60;99.90
15666;DHT22;20725;51.196;3.510;2022-12-29T15:38:45;8.50;99.90
15666;DHT22;20725;51.196;3.510;2022-12-29T15:41:29;8.50;99.90
15666;DHT22;20725;51.196;3.510;2022-12-29T15:44:30;8.40;99.90
15666;DHT22;20725;51.196;3.510;2022-12-29T15:47:03;8.30;99.90
15666;DHT22;20725;51.196;3.510;2022-12-29T15:49:31;8.20;99.90
15666;DHT22;20725;51.196;3.510;2022-12-29T15:52:08;8.20;99.90
15666;DHT22;20725;51.196;3.510;2022-12-29T15:54:42;8.20;99.90
15666;DHT22;20725;51.196;3.510;2022-12-29T15:57:20;8.10;99.90
15666;DHT22;20725;51.196;3.510;2022-12-29T15:59:52;8.10;99.90
15666;DHT22;20725;51.196;3.510;2022-12-29T16:02:22;8.10;99.90
15666;DHT22;20725;51.196;3.510;2022-12-29T16:04:59;8.00;99.90
15666;DHT22;20725;51.196;3.510;2022-12-29T16:07:30;7.90;99.90
15666;DHT22;20725;51.196;3.510;2022-12-29T16:10:00;7.80;99.90
15666;DHT22;20725;51.196;3.510;2022-12-29T16:12:38;7.70;99.90
15666;DHT22;20725;51.196;3.510;2022-12-29T16:15:07;7.70;99.90
15666;DHT22;20725;51.196;3.510;2022-12-29T16:17:47;7.70;99.90
15666;DHT22;20725;51.196;3.510;2022-12-29T16:20:31;7.70;99.90
15666;DHT22;20725;51.196;3.510;2022-12-29T16:23:19;7.60;99.90
15666;DHT22;20725;51.196;3.510;2022-12-29T16:26:00;7.50;99.90
15666;DHT22;20725;51.196;3.510;2022-12-29T16:28:35;7.50;99.90
15666;DHT22;20725;51.196;3.510;2022-12-29T16:31:21;7.40;99.90
15666;DHT22;20725;51.196;3.510;2022-12-29T16:34:09;7.40;99.90
15666;DHT22;20725;51.196;3.510;2022-12-29T16:36:55;7.60;99.90
15666;DHT22;20725;51.196;3.510;2022-12-29T16:39:36;7.60;99.90
15666;DHT22;20725;51.196;3.510;2022-12-29T16:42:48;7.50;99.90
15666;DHT22;20725;51.196;3.510;2022-12-29T16:49:06;7.50;99.90
15666;DHT22;20725;51.196;3.510;2022-12-29T16:51:58;7.30;99.90
15666;DHT22;20725;51.196;3.510;2022-12-29T16:54:32;7.40;99.90
15666;DHT22;20725;51.196;3.510;2022-12-29T16:57:12;7.40;99.90
15666;DHT22;20725;51.196;3.510;2022-12-29T16:59:45;7.40;99.90
15666;DHT22;20725;51.196;3.510;2022-12-29T17:02:20;7.30;99.90
15666;DHT22;20725;51.196;3.510;2022-12-29T17:04:59;7.30;99.90
15666;DHT22;20725;51.196;3.510;2022-12-29T17:07:34;7.20;99.90
15666;DHT22;20725;51.196;3.510;2022-12-29T17:10:06;7.30;99.90
15666;DHT22;20725;51.196;3.510;2022-12-29T17:12:36;7.30;99.90
15666;DHT22;20725;51.196;3.510;2022-12-29T17:15:07;7.40;99.90
15666;DHT22;20725;51.196;3.510;2022-12-29T17:17:40;7.40;99.90
15666;DHT22;20725;51.196;3.510;2022-12-29T17:20:15;7.50;99.90
15666;DHT22;20725;51.196;3.510;2022-12-29T17:22:44;7.50;99.90
15666;DHT22;20725;51.196;3.510;2022-12-29T17:25:16;7.50;99.90
15666;DHT22;20725;51.196;3.510;2022-12-29T17:27:51;7.50;99.90
15666;DHT22;20725;51.196;3.510;2022-12-29T17:30:26;7.50;99.90
15666;DHT22;20725;51.196;3.510;2022-12-29T17:33:00;7.50;99.90
15666;DHT22;20725;51.196;3.510;2022-12-29T17:35:40;7.50;99.90
15666;DHT22;20725;51.196;3.510;2022-12-29T17:38:16;7.40;99.90
15666;DHT22;20725;51.196;3.510;2022-12-29T17:40:53;7.50;99.90
15666;DHT22;20725;51.196;3.510;2022-12-29T17:43:29;7.60;99.90
15666;DHT22;20725;51.196;3.510;2022-12-29T17:46:10;7.50;99.90
15666;DHT22;20725;51.196;3.510;2022-12-29T17:48:38;7.50;99.90
15666;DHT22;20725;51.196;3.510;2022-12-29T17:51:07;7.50;99.90
15666;DHT22;20725;51.196;3.510;2022-12-29T17:54:08;7.60;99.90
15666;DHT22;20725;51.196;3.510;2022-12-29T17:56:41;7.60;99.90
15666;DHT22;20725;51.196;3.510;2022-12-29T17:59:12;7.60;99.90
15666;DHT22;20725;51.196;3.510;2022-12-29T18:01:45;7.70;99.90
15666;DHT22;20725;51.196;3.510;2022-12-29T18:04:15;7.70;99.90
15666;DHT22;20725;51.196;3.510;2022-12-29T18:06:46;7.60;99.90
15666;DHT22;20725;51.196;3.510;2022-12-29T18:09:13;7.70;99.90